Hundested, Denmark
Current Conditions -  °F | °C
As of 9:20 AM on Saturday 29 Nov 2014 (Local Time) from EKRK Reporting Station
Overcast Overcast  
Wind Chill: 27°   Ceiling: 2400
Heat Index: 37°   Visibility: 6mi
Dew Point: 30°   Wind: 18mph
Humidity: 75%   Direction: 130°SE
Pressure: 30.3"   Gusts: NA
Location:  55.97°N, 11.87°E
Report Text: EKRK 290820Z AUTO 13016KT 9999NDV SCT020/// OVC024///03/M01 Q1026
Loading
Personal Weather Stations






























Interactive Weather Map New forecast layout! Learn more

10-Day Weather Forecast

Advertisements
Track Severe Weather on mobile